Time;durP1;ratioP1;P1;durP2;ratioP2;P2;SDS_P1;SDS_P2;PMS_P1;PMS_P2;Temp;Humidity;BMP_temperature;BMP_pressure;BME280_temperature;BME280_humidity;BME280_pressure;Samples;Min_cycle;Max_cycle;Signal;HPM_P1;HPM_P2
2021/08/27 00:02:00;;;;;;;0.95;0.00;;;13.70;99.90;;;;;;5073840;28;20084;-75
2021/08/27 00:04:26;;;;;;;0.82;0.00;;;13.70;99.90;;;;;;5066746;28;20099;-75
2021/08/27 00:06:52;;;;;;;2.40;0.00;;;13.80;99.90;;;;;;5053220;28;20029;-75
2021/08/27 00:09:17;;;;;;;1.25;0.10;;;13.80;99.90;;;;;;5052986;28;20039;-75
2021/08/27 00:11:43;;;;;;;1.80;0.00;;;13.80;99.90;;;;;;5053529;28;20021;-75
2021/08/27 00:14:09;;;;;;;1.10;0.43;;;13.90;99.90;;;;;;5035275;28;20025;-74
2021/08/27 00:16:34;;;;;;;8.13;0.57;;;13.90;99.90;;;;;;5053084;28;20031;-74
2021/08/27 00:19:00;;;;;;;3.50;0.00;;;13.90;99.90;;;;;;5053121;28;20057;-74
2021/08/27 00:21:25;;;;;;;1.67;0.30;;;13.90;99.90;;;;;;5053040;28;20363;-74
2021/08/27 00:23:51;;;;;;;2.63;0.15;;;13.90;99.90;;;;;;5052960;28;20029;-74
2021/08/27 00:26:16;;;;;;;1.55;0.10;;;15.00;99.90;;;;;;5035059;28;20040;-74
2021/08/27 00:28:42;;;;;;;5.93;0.15;;;14.00;99.90;;;;;;5053039;28;20032;-75
2021/08/27 00:31:07;;;;;;;2.35;0.00;;;14.00;99.90;;;;;;5053212;28;20025;-75
2021/08/27 00:33:33;;;;;;;3.55;0.75;;;14.00;99.90;;;;;;5035028;28;20039;-75
2021/08/27 00:35:59;;;;;;;4.18;0.00;;;14.00;99.90;;;;;;5103412;22;20044;-74
2021/08/27 00:38:24;;;;;;;1.77;0.00;;;13.30;99.90;;;;;;5092400;28;20035;-75
2021/08/27 00:40:50;;;;;;;2.25;0.05;;;13.90;99.90;;;;;;5074959;28;20389;-75
2021/08/27 00:43:15;;;;;;;3.58;0.32;;;13.90;99.90;;;;;;5093092;28;20100;-75
2021/08/27 00:45:44;;;;;;;1.42;0.10;;;13.80;99.90;;;;;;5091828;28;20069;-75
2021/08/27 00:48:11;;;;;;;4.07;0.13;;;13.70;99.90;;;;;;5091849;28;20094;-75
2021/08/27 00:50:38;;;;;;;3.40;0.40;;;13.60;99.90;;;;;;5090105;28;20433;-75
2021/08/27 00:53:04;;;;;;;5.20;0.17;;;13.60;99.90;;;;;;5052801;28;20017;-75
2021/08/27 00:55:30;;;;;;;3.88;0.00;;;13.50;99.90;;;;;;5051482;28;20076;-75
2021/08/27 00:57:56;;;;;;;3.33;0.20;;;13.40;99.90;;;;;;5053330;28;20486;-75
2021/08/27 01:00:21;;;;;;;0.13;0.00;;;13.30;99.90;;;;;;5054505;28;20025;-76
2021/08/27 01:02:47;;;;;;;3.13;0.10;;;13.20;99.90;;;;;;5056678;28;20025;-76
2021/08/27 01:05:13;;;;;;;1.20;0.00;;;13.10;99.90;;;;;;5055208;28;20025;-76
2021/08/27 01:07:56;;;;;;;2.47;0.00;;;13.10;99.90;;;;;;5065586;28;20359;-76
2021/08/27 01:10:30;;;;;;;3.58;0.00;;;13.00;99.90;;;;;;5076428;28;20443;-78
2021/08/27 01:13:17;;;;;;;1.85;0.00;;;13.00;99.90;;;;;;5075517;28;20024;-78
2021/08/27 01:16:09;;;;;;;0.73;0.00;;;12.90;99.90;;;;;;5076610;28;20029;-78
2021/08/27 01:18:51;;;;;;;1.77;0.00;;;12.80;99.90;;;;;;5076756;28;20029;-78
2021/08/27 01:21:54;;;;;;;0.88;0.00;;;12.80;99.90;;;;;;5076199;28;20024;-75
2021/08/27 01:24:20;;;;;;;0.10;0.00;;;12.80;99.90;;;;;;5074802;28;20039;-75
2021/08/27 01:26:49;;;;;;;1.75;0.10;;;12.80;99.90;;;;;;5076071;28;20100;-75
2021/08/27 01:29:28;;;;;;;3.33;0.03;;;12.80;99.90;;;;;;5074631;28;20028;-75
2021/08/27 01:32:07;;;;;;;3.20;0.00;;;12.80;99.90;;;;;;5076015;28;20059;-76
2021/08/27 01:34:40;;;;;;;3.78;0.10;;;12.80;99.90;;;;;;5095709;28;20024;-76
2021/08/27 01:37:12;;;;;;;1.88;0.00;;;12.80;99.90;;;;;;5094887;28;20020;-75
2021/08/27 01:39:42;;;;;;;0.25;0.00;;;12.70;99.90;;;;;;5096027;28;20110;-75
2021/08/27 01:42:10;;;;;;;2.47;0.15;;;12.70;99.90;;;;;;5094820;28;20031;-75
2021/08/27 01:44:36;;;;;;;2.17;0.32;;;12.70;99.90;;;;;;5097563;28;20024;-79
2021/08/27 01:47:04;;;;;;;1.70;0.00;;;12.70;99.90;;;;;;5097083;28;20065;-78
2021/08/27 01:49:30;;;;;;;1.70;0.00;;;12.60;99.90;;;;;;5096331;28;20024;-78
2021/08/27 01:52:03;;;;;;;3.13;0.00;;;12.60;99.90;;;;;;5087672;28;20056;-79
2021/08/27 01:54:29;;;;;;;3.03;0.00;;;12.60;99.90;;;;;;5095246;28;20519;-78
2021/08/27 01:56:56;;;;;;;0.10;0.00;;;12.60;99.90;;;;;;5096948;28;20073;-79
2021/08/27 01:59:24;;;;;;;2.38;0.00;;;12.60;99.90;;;;;;5095459;28;20400;-78
2021/08/27 02:01:50;;;;;;;1.83;0.30;;;12.60;99.90;;;;;;5095245;28;20028;-78
2021/08/27 02:04:19;;;;;;;1.52;0.00;;;12.60;99.90;;;;;;5096568;28;20035;-79
2021/08/27 02:06:46;;;;;;;2.30;0.30;;;12.60;99.90;;;;;;5095906;28;20524;-75
2021/08/27 02:09:13;;;;;;;2.75;0.00;;;12.60;99.90;;;;;;5085822;28;20058;-75
2021/08/27 02:11:39;;;;;;;4.63;0.05;;;12.70;99.90;;;;;;5074335;28;20020;-75
2021/08/27 02:14:06;;;;;;;2.80;0.10;;;12.70;99.90;;;;;;5075274;28;20023;-75
2021/08/27 02:16:32;;;;;;;2.70;0.00;;;12.70;99.90;;;;;;5075217;28;20533;-76
2021/08/27 02:18:58;;;;;;;0.98;0.00;;;12.70;99.90;;;;;;5075191;28;20142;-75
2021/08/27 02:21:27;;;;;;;6.40;0.63;;;12.70;99.90;;;;;;5075065;28;20482;-75
2021/08/27 02:23:54;;;;;;;7.18;0.38;;;12.80;99.90;;;;;;5074939;28;20512;-75
2021/08/27 02:26:22;;;;;;;2.05;0.47;;;12.80;99.90;;;;;;5075491;28;20021;-75
2021/08/27 02:28:48;;;;;;;1.15;0.00;;;12.80;99.90;;;;;;5085654;28;20016;-75
2021/08/27 02:31:16;;;;;;;1.33;0.00;;;12.80;99.90;;;;;;5093690;28;20481;-75
2021/08/27 02:33:45;;;;;;;2.60;0.00;;;12.90;99.90;;;;;;5094913;28;20493;-75
2021/08/27 02:36:16;;;;;;;0.88;0.00;;;12.90;99.90;;;;;;5095054;28;20032;-75
2021/08/27 02:38:43;;;;;;;2.60;0.00;;;12.90;99.90;;;;;;5094870;28;20073;-75
2021/08/27 02:41:09;;;;;;;0.82;0.00;;;13.00;99.90;;;;;;5093584;28;20127;-75
2021/08/27 02:43:34;;;;;;;6.70;0.00;;;13.10;99.90;;;;;;5093523;28;20362;-75
2021/08/27 02:46:00;;;;;;;0.82;0.00;;;13.20;99.90;;;;;;5094972;28;20059;-75
2021/08/27 02:48:26;;;;;;;1.95;0.20;;;13.20;99.90;;;;;;5094647;28;20020;-75
2021/08/27 02:51:17;;;;;;;1.75;0.08;;;13.30;99.90;;;;;;5094716;28;20020;-75
2021/08/27 02:53:46;;;;;;;1.98;0.20;;;13.40;99.90;;;;;;5084937;28;20036;-75
2021/08/27 02:56:21;;;;;;;1.98;0.30;;;13.40;99.90;;;;;;5093251;28;20115;-75
2021/08/27 02:58:49;;;;;;;1.60;0.00;;;13.40;99.90;;;;;;5094622;28;20077;-75
2021/08/27 03:01:37;;;;;;;3.15;0.10;;;13.40;99.90;;;;;;5094559;28;20062;-75
2021/08/27 03:04:08;;;;;;;2.17;0.00;;;13.50;99.90;;;;;;5094314;28;20032;-75
2021/08/27 03:06:49;;;;;;;2.40;0.00;;;13.60;99.90;;;;;;5094517;28;20077;-75
2021/08/27 03:09:15;;;;;;;4.78;0.60;;;13.50;99.90;;;;;;5094517;28;20028;-74
2021/08/27 03:11:58;;;;;;;0.98;0.05;;;13.60;99.90;;;;;;5094819;28;20024;-75
2021/08/27 03:14:35;;;;;;;3.40;0.35;;;16.70;99.90;;;;;;5094262;28;20093;-74
2021/08/27 03:17:05;;;;;;;3.53;0.28;;;13.70;99.90;;;;;;5094833;28;20185;-74
2021/08/27 03:19:43;;;;;;;0.73;0.10;;;13.70;99.90;;;;;;5094877;28;20028;-79
2021/08/27 03:22:20;;;;;;;7.15;0.43;;;13.70;99.90;;;;;;5079565;28;20033;-78
2021/08/27 03:24:54;;;;;;;1.75;0.03;;;13.60;99.90;;;;;;5094956;28;20028;-78
2021/08/27 03:27:27;;;;;;;4.30;0.20;;;13.90;99.90;;;;;;5095247;28;20024;-78
2021/08/27 03:30:00;;;;;;;2.95;0.00;;;13.60;99.90;;;;;;5095172;28;20031;-78
2021/08/27 03:32:27;;;;;;;2.63;0.00;;;13.50;99.90;;;;;;5068770;28;20362;-78
2021/08/27 03:34:53;;;;;;;0.68;0.00;;;13.50;99.90;;;;;;5072865;28;20033;-78
2021/08/27 03:37:19;;;;;;;6.10;0.52;;;13.50;99.90;;;;;;5072492;28;20055;-75
2021/08/27 03:39:46;;;;;;;1.52;0.00;;;13.50;99.90;;;;;;5073596;28;20078;-75
2021/08/27 03:42:15;;;;;;;5.22;0.10;;;13.50;99.90;;;;;;5073830;28;20039;-75
2021/08/27 03:44:41;;;;;;;0.85;0.00;;;13.50;99.90;;;;;;5072897;28;20025;-75
2021/08/27 03:47:08;;;;;;;2.55;0.00;;;13.50;99.90;;;;;;5073536;28;20055;-75
2021/08/27 03:49:34;;;;;;;4.57;0.35;;;13.60;99.90;;;;;;5073653;28;20431;-76
2021/08/27 03:52:01;;;;;;;6.07;0.00;;;13.60;99.90;;;;;;5073358;28;20025;-76
2021/08/27 03:54:28;;;;;;;5.03;0.20;;;13.70;99.90;;;;;;5073321;28;20354;-76
2021/08/27 03:56:54;;;;;;;2.53;0.00;;;13.70;99.90;;;;;;5072160;28;20021;-76
2021/08/27 03:59:22;;;;;;;4.80;0.00;;;13.80;99.90;;;;;;5073472;28;20060;-76
2021/08/27 04:01:48;;;;;;;3.47;0.00;;;13.80;99.90;;;;;;5072654;28;20021;-76
2021/08/27 04:04:21;;;;;;;2.10;0.00;;;13.80;99.90;;;;;;5093664;28;20270;-76
2021/08/27 04:07:01;;;;;;;0.10;0.00;;;13.90;99.90;;;;;;5093704;28;20032;-75
2021/08/27 04:09:28;;;;;;;3.30;0.00;;;13.90;99.90;;;;;;5093719;28;20532;-75
2021/08/27 04:11:54;;;;;;;1.08;0.00;;;13.90;99.90;;;;;;5093550;28;20020;-74
2021/08/27 04:14:20;;;;;;;1.23;0.00;;;13.90;99.90;;;;;;5092998;28;20024;-74
2021/08/27 04:16:46;;;;;;;0.47;0.00;;;13.90;99.90;;;;;;5093863;28;20463;-74
2021/08/27 04:19:14;;;;;;;3.85;0.00;;;13.80;99.90;;;;;;5092030;28;20063;-75
2021/08/27 04:21:41;;;;;;;1.65;0.00;;;13.80;99.90;;;;;;5093649;28;20358;-74
2021/08/27 04:24:06;;;;;;;1.50;0.00;;;13.80;99.90;;;;;;5093799;28;20020;-75
2021/08/27 04:26:33;;;;;;;1.05;0.00;;;13.80;99.90;;;;;;5093190;28;20107;-74
2021/08/27 04:28:59;;;;;;;0.65;0.00;;;13.80;99.90;;;;;;5094667;28;20012;-78
2021/08/27 04:31:25;;;;;;;0.60;0.00;;;13.70;99.90;;;;;;5093812;28;20381;-78
2021/08/27 04:33:50;;;;;;;1.23;0.00;;;13.70;99.90;;;;;;5094472;28;20026;-78
2021/08/27 04:36:16;;;;;;;0.65;0.00;;;13.70;99.90;;;;;;5097964;28;20012;-78
2021/08/27 04:38:41;;;;;;;3.72;0.00;;;13.70;99.90;;;;;;5098122;28;20095;-78
2021/08/27 04:41:07;;;;;;;1.77;0.00;;;13.60;99.90;;;;;;5098711;28;20026;-78
2021/08/27 04:43:33;;;;;;;0.52;0.00;;;14.50;99.90;;;;;;5096405;28;20023;-79
2021/08/27 04:45:58;;;;;;;0.50;0.20;;;13.50;99.90;;;;;;5097549;28;20087;-75
2021/08/27 04:48:25;;;;;;;0.40;0.00;;;13.50;99.90;;;;;;5097322;28;20541;-74
2021/08/27 04:50:51;;;;;;;0.35;0.00;;;13.40;99.90;;;;;;5097689;28;20046;-75
2021/08/27 04:53:17;;;;;;;0.50;0.00;;;13.30;99.90;;;;;;5096966;28;20024;-75
2021/08/27 04:55:43;;;;;;;0.40;0.00;;;13.30;99.90;;;;;;5086272;28;20023;-75
2021/08/27 04:58:09;;;;;;;1.85;0.00;;;13.20;99.90;;;;;;5076697;28;20017;-74
2021/08/27 05:00:34;;;;;;;0.10;0.05;;;13.20;99.90;;;;;;5075238;28;20513;-74
2021/08/27 05:03:00;;;;;;;0.52;0.00;;;13.10;99.90;;;;;;5077010;28;20020;-74
2021/08/27 05:05:28;;;;;;;2.33;0.43;;;13.10;99.90;;;;;;5075120;28;20473;-74
2021/08/27 05:07:54;;;;;;;2.08;0.00;;;13.00;99.90;;;;;;5076633;28;20107;-74
2021/08/27 05:10:19;;;;;;;0.85;0.00;;;14.00;99.90;;;;;;5076418;28;20099;-74
2021/08/27 05:12:45;;;;;;;1.58;0.00;;;13.00;99.90;;;;;;5076343;28;20059;-75
2021/08/27 05:15:11;;;;;;;0.10;0.00;;;13.00;99.90;;;;;;5073475;28;20473;-75
2021/08/27 05:17:38;;;;;;;3.70;0.00;;;13.00;99.90;;;;;;5075492;28;20028;-75
2021/08/27 05:20:05;;;;;;;0.77;0.05;;;12.90;99.90;;;;;;5062188;28;20040;-75
2021/08/27 05:22:31;;;;;;;1.73;0.00;;;12.90;99.90;;;;;;5056079;28;20032;-75
2021/08/27 05:24:57;;;;;;;3.17;0.00;;;12.90;99.90;;;;;;5061525;28;20032;-75
2021/08/27 05:27:23;;;;;;;0.30;0.00;;;12.90;99.90;;;;;;5075958;28;20028;-75
2021/08/27 05:29:48;;;;;;;3.10;0.00;;;12.90;99.90;;;;;;5065334;28;20025;-75
2021/08/27 05:32:14;;;;;;;0.10;0.00;;;12.90;99.90;;;;;;5054722;28;20025;-75
2021/08/27 05:34:41;;;;;;;2.00;0.15;;;12.90;99.90;;;;;;5075978;28;20027;-76
2021/08/27 05:37:07;;;;;;;0.85;0.00;;;13.00;99.90;;;;;;5056151;28;20040;-76
2021/08/27 05:39:33;;;;;;;3.58;0.00;;;13.00;99.90;;;;;;5067919;28;20389;-78
2021/08/27 05:42:01;;;;;;;2.15;0.13;;;13.10;99.90;;;;;;5076177;28;20031;-74
2021/08/27 05:44:28;;;;;;;0.50;0.10;;;13.20;99.90;;;;;;5076290;28;20023;-76
2021/08/27 05:46:55;;;;;;;0.75;0.03;;;13.20;99.90;;;;;;5074893;28;20350;-74
2021/08/27 05:49:21;;;;;;;5.28;0.63;;;13.20;99.90;;;;;;5075716;28;20028;-75
2021/08/27 05:51:47;;;;;;;4.53;0.00;;;13.20;99.90;;;;;;5075671;28;20389;-76
2021/08/27 05:54:13;;;;;;;0.20;0.00;;;13.20;99.90;;;;;;5076500;28;20012;-77
2021/08/27 05:56:38;;;;;;;1.55;0.00;;;13.30;99.90;;;;;;5074429;28;20044;-75
2021/08/27 05:59:04;;;;;;;6.13;0.70;;;13.40;99.90;;;;;;5096218;22;20097;-74
2021/08/27 06:01:30;;;;;;;6.18;0.35;;;13.40;99.90;;;;;;5096095;28;20016;-75
2021/08/27 06:03:55;;;;;;;1.30;0.00;;;13.50;99.90;;;;;;5077638;28;20024;-74
2021/08/27 06:06:21;;;;;;;1.50;0.20;;;13.60;99.90;;;;;;5089350;28;20096;-78
2021/08/27 06:08:47;;;;;;;2.97;0.00;;;13.70;99.90;;;;;;5075692;28;20117;-74
2021/08/27 06:11:12;;;;;;;1.45;0.00;;;13.70;99.90;;;;;;5075564;28;20020;-75
2021/08/27 06:13:38;;;;;;;0.10;0.00;;;13.90;99.90;;;;;;5075721;28;20074;-76
2021/08/27 06:16:04;;;;;;;1.00;0.00;;;13.90;99.90;;;;;;5076451;28;20058;-75
2021/08/27 06:18:30;;;;;;;2.63;0.00;;;14.00;99.90;;;;;;5095363;28;20099;-77
2021/08/27 06:20:55;;;;;;;1.95;0.00;;;14.10;99.90;;;;;;5078103;28;20435;-75
2021/08/27 06:23:21;;;;;;;1.98;0.00;;;14.20;99.90;;;;;;5077195;28;20016;-75
2021/08/27 06:25:47;;;;;;;0.63;0.15;;;14.30;99.90;;;;;;5077109;28;20024;-75
2021/08/27 06:28:13;;;;;;;2.22;0.00;;;14.50;99.90;;;;;;5072296;28;20020;-75
2021/08/27 06:30:39;;;;;;;2.17;0.10;;;14.60;99.90;;;;;;5056792;28;20399;-74
2021/08/27 06:33:06;;;;;;;1.98;0.25;;;14.80;99.90;;;;;;5074774;28;20024;-75
2021/08/27 06:35:32;;;;;;;0.80;0.15;;;14.90;99.90;;;;;;5088964;28;20110;-74
2021/08/27 06:40:44;;;;;;;4.25;0.00;;;15.10;99.90;;;;;;5095610;28;20120;-74
2021/08/27 06:43:10;;;;;;;1.75;0.70;;;15.30;99.90;;;;;;5095123;28;20103;-75
2021/08/27 06:45:36;;;;;;;2.17;0.00;;;15.40;99.90;;;;;;5095002;28;20366;-76
2021/08/27 06:48:03;;;;;;;0.98;0.00;;;15.50;99.90;;;;;;5094738;28;20050;-74
2021/08/27 06:50:31;;;;;;;0.57;0.15;;;15.60;99.90;;;;;;5094704;28;20020;-74
2021/08/27 06:52:57;;;;;;;1.55;0.00;;;15.80;99.90;;;;;;5094462;28;20024;-74
2021/08/27 06:55:23;;;;;;;1.45;0.00;;;15.90;99.90;;;;;;5094836;28;20046;-75
2021/08/27 06:57:49;;;;;;;3.20;0.40;;;16.00;99.90;;;;;;5094706;28;20082;-74
2021/08/27 07:00:17;;;;;;;1.45;0.10;;;16.10;99.90;;;;;;5094547;28;20078;-74
2021/08/27 07:02:43;;;;;;;0.82;0.00;;;16.30;99.90;;;;;;5076259;28;20485;-74
2021/08/27 07:05:09;;;;;;;1.73;0.00;;;16.40;99.90;;;;;;5066287;28;20119;-74
2021/08/27 07:07:35;;;;;;;0.85;0.10;;;16.50;99.90;;;;;;5056113;28;20563;-75
2021/08/27 07:10:01;;;;;;;0.75;0.00;;;16.60;99.90;;;;;;5091725;28;20028;-74
2021/08/27 07:12:27;;;;;;;0.43;0.00;;;16.70;99.90;;;;;;5062781;28;20029;-74
2021/08/27 07:14:52;;;;;;;0.30;0.00;;;16.90;99.90;;;;;;5074274;28;20359;-74
2021/08/27 07:17:19;;;;;;;0.20;0.00;;;17.00;99.90;;;;;;5055941;28;20557;-74
2021/08/27 07:19:46;;;;;;;0.22;0.00;;;17.10;99.90;;;;;;5074265;28;20116;-75
2021/08/27 07:22:13;;;;;;;5.05;0.00;;;17.20;99.90;;;;;;5092537;22;20080;-74
2021/08/27 07:24:38;;;;;;;2.28;0.00;;;17.40;99.90;;;;;;5055892;28;20528;-75
2021/08/27 07:27:04;;;;;;;3.50;0.00;;;17.50;99.90;;;;;;5053650;28;20029;-75
2021/08/27 07:29:29;;;;;;;1.60;0.25;;;17.50;99.90;;;;;;5053686;28;20028;-75
2021/08/27 07:31:55;;;;;;;3.63;0.00;;;17.50;99.90;;;;;;5038764;28;20033;-75
2021/08/27 07:34:20;;;;;;;2.28;0.17;;;17.60;99.90;;;;;;5033681;28;20485;-75
2021/08/27 07:36:46;;;;;;;2.38;0.32;;;17.70;99.90;;;;;;5033494;28;20026;-76
2021/08/27 07:39:12;;;;;;;2.25;0.28;;;17.80;99.90;;;;;;5023336;28;20502;-75
2021/08/27 07:41:37;;;;;;;5.15;0.00;;;17.90;99.90;;;;;;5034887;28;20075;-75
2021/08/27 07:44:03;;;;;;;3.10;0.00;;;18.00;99.90;;;;;;5019992;28;20044;-76
2021/08/27 07:46:29;;;;;;;1.05;0.05;;;17.90;99.90;;;;;;5042055;28;20449;-75
2021/08/27 07:48:55;;;;;;;3.35;0.10;;;18.00;99.90;;;;;;5053232;28;20047;-76
2021/08/27 07:51:23;;;;;;;1.58;0.10;;;18.10;99.90;;;;;;5025771;28;20017;-76
2021/08/27 07:53:49;;;;;;;2.45;0.32;;;18.10;99.90;;;;;;5026388;28;20021;-75
2021/08/27 07:56:15;;;;;;;2.83;0.00;;;18.10;99.90;;;;;;5028399;28;20390;-75
2021/08/27 07:58:40;;;;;;;2.20;0.45;;;18.00;99.90;;;;;;5033517;28;20113;-75
2021/08/27 08:01:06;;;;;;;3.15;0.10;;;17.90;99.90;;;;;;5034458;28;20064;-74
2021/08/27 08:03:31;;;;;;;1.05;0.05;;;17.90;99.90;;;;;;5047013;28;20032;-74
2021/08/27 08:05:57;;;;;;;0.05;0.00;;;17.90;99.90;;;;;;5033587;28;20120;-74
2021/08/27 08:08:22;;;;;;;1.95;0.15;;;17.90;99.90;;;;;;5014947;28;20056;-74
2021/08/27 08:10:48;;;;;;;4.25;0.38;;;18.00;99.90;;;;;;5041221;28;20029;-74
2021/08/27 08:13:13;;;;;;;1.17;0.00;;;18.30;99.90;;;;;;5052937;28;20531;-74
2021/08/27 08:15:39;;;;;;;1.95;0.00;;;18.30;99.90;;;;;;5030915;28;20049;-74
2021/08/27 08:18:05;;;;;;;3.30;0.10;;;18.50;99.90;;;;;;5033040;28;20112;-75
2021/08/27 08:20:30;;;;;;;4.15;0.32;;;18.60;99.90;;;;;;5032505;28;20021;-74
2021/08/27 08:22:57;;;;;;;1.50;0.22;;;18.70;99.90;;;;;;5037444;28;20040;-74
2021/08/27 08:25:23;;;;;;;2.50;0.00;;;18.70;99.90;;;;;;5023092;28;20034;-74
2021/08/27 08:27:48;;;;;;;3.63;0.00;;;18.60;99.90;;;;;;5046235;28;20478;-74
2021/08/27 08:30:14;;;;;;;3.42;0.52;;;18.60;99.90;;;;;;5027104;28;20084;-74
2021/08/27 08:32:39;;;;;;;4.93;0.35;;;18.70;99.90;;;;;;5015192;28;20382;-74
2021/08/27 08:35:06;;;;;;;2.88;0.00;;;18.40;99.90;;;;;;5038687;28;20017;-74
2021/08/27 08:37:32;;;;;;;2.42;0.00;;;18.30;99.90;;;;;;5052863;28;20025;-74
2021/08/27 08:39:57;;;;;;;1.40;0.30;;;18.20;99.90;;;;;;5053200;28;20017;-75
2021/08/27 08:42:23;;;;;;;2.80;0.00;;;18.00;99.90;;;;;;5052966;28;20029;-75
2021/08/27 08:44:49;;;;;;;0.60;0.00;;;17.70;99.90;;;;;;5038805;28;20482;-74
2021/08/27 08:47:18;;;;;;;2.58;0.60;;;17.50;99.90;;;;;;5052778;28;20021;-74
2021/08/27 08:49:45;;;;;;;;;;;17.20;99.90;;;;;;5041483;28;20029;-73
2021/08/27 08:52:13;;;;;;;3.33;0.00;;;16.90;99.90;;;;;;5027857;28;19909;-74
2021/08/27 08:54:39;;;;;;;2.65;0.00;;;16.70;99.90;;;;;;5047158;28;20529;-74
2021/08/27 08:57:05;;;;;;;1.88;0.00;;;16.60;99.90;;;;;;5032876;28;20018;-75
2021/08/27 08:59:34;;;;;;;1.65;0.00;;;16.50;99.90;;;;;;5032954;28;20030;-74
2021/08/27 09:02:01;;;;;;;3.72;0.15;;;16.50;99.90;;;;;;5032768;28;20383;-74
2021/08/27 09:04:27;;;;;;;3.55;0.00;;;16.60;99.90;;;;;;5014898;28;20176;-75
2021/08/27 09:06:53;;;;;;;2.20;0.05;;;16.80;99.90;;;;;;5033289;28;20375;-75
2021/08/27 09:09:33;;;;;;;8.07;0.75;;;17.00;99.90;;;;;;5036367;28;20021;-75
2021/08/27 09:12:00;;;;;;;0.43;0.00;;;17.30;99.90;;;;;;5046293;28;20070;-74
2021/08/27 09:14:30;;;;;;;3.50;0.00;;;17.90;99.90;;;;;;5029076;28;20053;-75
2021/08/27 09:17:06;;;;;;;1.85;0.10;;;18.40;99.90;;;;;;5032445;28;20037;-75
2021/08/27 09:19:53;;;;;;;2.42;0.17;;;19.00;99.90;;;;;;5014991;28;20022;-74
2021/08/27 09:22:19;;;;;;;1.85;0.00;;;19.30;99.90;;;;;;5035478;28;20116;-76
2021/08/27 09:25:03;;;;;;;2.47;0.00;;;19.30;99.90;;;;;;5119926;22;20560;-76
2021/08/27 09:27:29;;;;;;;2.20;0.10;;;19.30;99.90;;;;;;5116683;28;20423;-76
2021/08/27 09:29:55;;;;;;;1.60;0.10;;;19.20;99.90;;;;;;5100882;28;20028;-75
2021/08/27 09:32:28;;;;;;;4.80;0.13;;;19.30;99.90;;;;;;5101127;28;20515;-75
2021/08/27 09:35:08;;;;;;;3.65;0.00;;;19.40;99.90;;;;;;5131409;22;20031;31
2021/08/27 09:37:39;;;;;;;1.95;0.03;;;19.70;99.90;;;;;;5028309;28;20407;-77
2021/08/27 09:40:10;;;;;;;1.67;0.00;;;19.50;99.90;;;;;;5031969;28;20033;-77
2021/08/27 09:42:40;;;;;;;1.75;0.00;;;19.60;99.90;;;;;;5024827;28;20026;-74
2021/08/27 09:45:07;;;;;;;0.73;0.00;;;19.60;99.90;;;;;;5032748;22;20069;-76
2021/08/27 09:47:32;;;;;;;4.47;0.00;;;19.80;99.90;;;;;;5037682;28;20025;-75
2021/08/27 09:50:25;;;;;;;2.05;0.30;;;19.90;99.90;;;;;;5037430;28;20466;-78
2021/08/27 09:52:52;;;;;;;2.17;0.17;;;20.10;99.90;;;;;;5037535;28;20021;-76
2021/08/27 09:55:18;;;;;;;2.05;0.28;;;20.30;99.90;;;;;;5036719;28;20108;-74
2021/08/27 09:57:45;;;;;;;3.63;0.28;;;20.20;99.90;;;;;;5055433;28;20112;-74
2021/08/27 10:00:22;;;;;;;1.55;0.00;;;20.10;99.90;;;;;;5055018;28;20029;-77
2021/08/27 10:02:48;;;;;;;2.40;0.00;;;20.00;99.90;;;;;;5055428;28;20083;-74
2021/08/27 10:05:15;;;;;;;5.30;0.10;;;19.90;99.90;;;;;;5024634;28;20021;-74
2021/08/27 10:07:41;;;;;;;3.20;0.00;;;19.70;99.90;;;;;;5050788;28;20094;-77
2021/08/27 10:10:16;;;;;;;4.20;0.75;;;19.40;99.90;;;;;;5025353;28;20030;-74
2021/08/27 10:12:46;;;;;;;3.00;0.00;;;19.30;99.90;;;;;;5033240;28;20506;-73
2021/08/27 10:15:12;;;;;;;1.88;0.00;;;19.50;99.90;;;;;;5050965;22;20048;-74
2021/08/27 10:17:40;;;;;;;0.65;0.00;;;19.60;99.90;;;;;;5055290;28;20047;-74
2021/08/27 10:20:07;;;;;;;2.55;0.00;;;19.80;99.90;;;;;;5037330;28;20040;-73
2021/08/27 10:22:41;;;;;;;2.70;0.00;;;19.90;99.90;;;;;;5054955;28;20133;-74
2021/08/27 10:25:09;;;;;;;0.40;0.00;;;19.80;99.90;;;;;;5035032;28;20056;-74
2021/08/27 10:27:37;;;;;;;3.50;0.08;;;19.60;99.90;;;;;;5035224;28;20061;-75
2021/08/27 10:30:05;;;;;;;2.10;0.00;;;19.50;99.90;;;;;;5025221;28;20559;-75
2021/08/27 10:32:39;;;;;;;1.70;0.00;;;19.40;99.90;;;;;;5054431;28;20025;-74
2021/08/27 10:35:10;;;;;;;2.17;0.00;;;19.10;99.90;;;;;;5042336;28;20090;-73
2021/08/27 10:37:49;;;;;;;0.73;0.00;;;18.90;99.90;;;;;;5035623;28;20021;-75
2021/08/27 10:40:25;;;;;;;3.17;0.00;;;18.60;99.90;;;;;;5044758;28;20425;-74
2021/08/27 10:42:56;;;;;;;2.17;0.25;;;18.20;99.90;;;;;;5017355;28;20056;-74
2021/08/27 10:45:40;;;;;;;1.00;0.00;;;18.00;99.90;;;;;;5036001;28;20394;-75
2021/08/27 10:48:26;;;;;;;0.63;0.00;;;18.00;99.90;;;;;;5034442;28;20021;-74
2021/08/27 10:50:56;;;;;;;6.07;0.00;;;18.30;99.90;;;;;;5044162;28;20060;-74
2021/08/27 10:53:30;;;;;;;2.28;0.20;;;18.80;99.90;;;;;;5054567;28;20596;-76
2021/08/27 10:55:59;;;;;;;0.98;0.10;;;19.30;99.90;;;;;;5054779;28;20033;-74
2021/08/27 10:58:50;;;;;;;2.38;0.00;;;19.90;99.90;;;;;;5050972;28;20475;-75
2021/08/27 11:01:33;;;;;;;4.72;0.40;;;20.60;99.90;;;;;;5016704;28;20505;-73
2021/08/27 11:04:07;;;;;;;0.95;0.00;;;20.80;99.90;;;;;;5035273;28;20034;-75
2021/08/27 11:06:47;;;;;;;1.70;0.08;;;20.40;99.90;;;;;;5039416;28;20025;-75
2021/08/27 11:09:14;;;;;;;0.52;0.00;;;19.60;99.90;;;;;;4996953;28;20391;-72
2021/08/27 11:11:40;;;;;;;0.55;0.00;;;18.90;99.90;;;;;;5016643;28;20464;-74
2021/08/27 11:14:20;;;;;;;2.67;0.30;;;18.30;99.90;;;;;;5034296;28;20156;-74
2021/08/27 11:16:59;;;;;;;0.88;0.17;;;17.80;99.90;;;;;;5041303;28;20103;-74
2021/08/27 11:19:27;;;;;;;3.33;0.00;;;17.30;99.90;;;;;;5016276;28;20021;-75
2021/08/27 11:22:19;;;;;;;0.73;0.10;;;17.10;99.90;;;;;;5034984;28;20025;-74
2021/08/27 11:25:03;;;;;;;4.90;0.00;;;16.70;99.90;;;;;;5045019;28;20032;-75
2021/08/27 11:27:33;;;;;;;1.67;0.40;;;16.50;99.90;;;;;;5054369;28;20029;-74
2021/08/27 11:30:29;;;;;;;0.38;0.05;;;16.50;99.90;;;;;;5053986;28;20040;-74
2021/08/27 11:32:56;;;;;;;2.83;0.00;;;16.50;99.90;;;;;;5017296;28;20049;-74
2021/08/27 11:35:22;;;;;;;0.57;0.00;;;16.80;99.90;;;;;;5021857;28;20398;-77
2021/08/27 11:37:55;;;;;;;3.67;0.00;;;17.10;99.90;;;;;;5033943;28;20073;-74
2021/08/27 11:40:22;;;;;;;5.80;0.60;;;17.40;99.90;;;;;;5033815;28;20136;-77
2021/08/27 11:42:52;;;;;;;2.95;0.00;;;17.70;99.90;;;;;;5015983;28;20075;-73
2021/08/27 11:45:20;;;;;;;1.55;0.00;;;17.90;99.90;;;;;;5015609;28;20471;-74
2021/08/27 11:47:51;;;;;;;4.18;0.00;;;18.10;99.90;;;;;;5033433;28;20083;-75
2021/08/27 11:50:28;;;;;;;1.30;0.22;;;18.30;99.90;;;;;;5032090;28;20120;-75
2021/08/27 11:52:58;;;;;;;0.28;0.00;;;18.70;99.90;;;;;;5034673;28;20542;-75
2021/08/27 11:55:24;;;;;;;2.55;0.20;;;19.30;99.90;;;;;;5035583;28;20474;-74
2021/08/27 11:57:53;;;;;;;4.18;0.20;;;19.70;99.90;;;;;;5049631;28;20076;-75
2021/08/27 12:00:40;;;;;;;1.35;0.00;;;20.10;99.90;;;;;;5015734;28;20571;-74
2021/08/27 12:03:07;;;;;;;4.40;0.10;;;20.30;99.90;;;;;;5032837;28;20042;-75
2021/08/27 12:05:33;;;;;;;3.03;0.28;;;20.70;99.90;;;;;;5033103;28;20033;-74
2021/08/27 12:08:04;;;;;;;0.15;0.00;;;21.00;99.90;;;;;;5032885;28;20041;-74
2021/08/27 12:10:35;;;;;;;3.67;0.10;;;21.10;99.90;;;;;;5033546;28;20509;-75
2021/08/27 12:13:03;;;;;;;1.73;0.52;;;21.00;99.90;;;;;;5060647;22;20106;-75
2021/08/27 12:15:35;;;;;;;4.85;0.40;;;20.80;99.90;;;;;;5035432;28;20082;-75
2021/08/27 12:18:01;;;;;;;3.38;0.00;;;20.30;99.90;;;;;;5053157;28;20104;-76
2021/08/27 12:20:35;;;;;;;2.40;0.00;;;20.10;99.90;;;;;;5035154;28;20021;-76
2021/08/27 12:23:16;;;;;;;1.38;0.10;;;20.00;99.90;;;;;;5033558;28;20053;-74
2021/08/27 12:26:02;;;;;;;4.55;0.22;;;20.00;99.90;;;;;;5043993;28;20115;-73
2021/08/27 12:28:39;;;;;;;1.67;0.00;;;20.30;99.90;;;;;;5035346;28;20021;-73
2021/08/27 12:31:06;;;;;;;2.53;0.20;;;20.60;99.90;;;;;;5045679;28;20443;-73
2021/08/27 12:33:36;;;;;;;1.95;0.00;;;20.30;99.90;;;;;;5015351;28;20434;-73
2021/08/27 12:36:03;;;;;;;1.55;0.00;;;20.20;99.90;;;;;;5033141;28;20033;-75
2021/08/27 12:38:29;;;;;;;2.17;0.10;;;20.50;99.90;;;;;;5015203;28;20030;-74
2021/08/27 12:40:55;;;;;;;10.15;0.20;;;21.00;99.90;;;;;;5033006;28;20032;-74
2021/08/27 12:43:24;;;;;;;6.05;0.80;;;21.10;99.90;;;;;;5033102;28;20382;-75
2021/08/27 12:45:55;;;;;;;2.38;0.15;;;20.90;99.90;;;;;;5032970;28;20087;-74
2021/08/27 12:48:30;;;;;;;2.58;0.00;;;20.70;99.90;;;;;;5033074;28;20084;-75
2021/08/27 12:51:04;;;;;;;4.32;0.82;;;20.70;99.90;;;;;;5032922;28;20036;-74
2021/08/27 12:53:34;;;;;;;3.75;0.22;;;21.10;99.90;;;;;;5032675;28;20447;-72
2021/08/27 12:56:13;;;;;;;3.20;0.00;;;21.50;99.90;;;;;;5020681;28;20120;-75
2021/08/27 12:58:41;;;;;;;2.17;0.20;;;21.40;99.90;;;;;;5038455;28;20021;-74
2021/08/27 13:01:22;;;;;;;1.50;0.00;;;21.30;99.90;;;;;;5052407;22;20607;-75